Time;durP1;ratioP1;P1;durP2;ratioP2;P2;SDS_P1;SDS_P2;PMS_P1;PMS_P2;Temp;Humidity;BMP_temperature;BMP_pressure;BME280_temperature;BME280_humidity;BME280_pressure;Samples;Min_cycle;Max_cycle;Signal;HPM_P1;HPM_P2
2023/04/14 00:00:14;;;;;;;9.40;2.03;;;6.70;99.90;;;;;;5020617;28;20045;-76
2023/04/14 00:02:40;;;;;;;7.75;1.90;;;6.70;99.90;;;;;;5050170;28;20045;-76
2023/04/14 00:05:07;;;;;;;11.75;2.03;;;6.70;99.90;;;;;;5004450;28;20056;-75
2023/04/14 00:07:32;;;;;;;7.72;1.83;;;6.60;99.90;;;;;;5036586;28;20049;-76
2023/04/14 00:09:58;;;;;;;8.18;2.35;;;6.60;99.90;;;;;;5015219;28;20632;-79
2023/04/14 00:12:24;;;;;;;7.93;1.92;;;6.60;99.90;;;;;;5038522;28;20566;-75
2023/04/14 00:14:50;;;;;;;12.32;2.55;;;6.50;99.90;;;;;;5036703;28;20083;-77
2023/04/14 00:17:17;;;;;;;8.00;2.00;;;6.50;99.90;;;;;;5020777;28;20132;-75
2023/04/14 00:19:50;;;;;;;11.18;2.10;;;6.50;99.90;;;;;;5018759;28;20049;-77
2023/04/14 00:22:17;;;;;;;11.15;2.53;;;6.30;99.90;;;;;;5000189;28;20095;-76
2023/04/14 00:24:52;;;;;;;7.93;2.08;;;6.40;99.90;;;;;;5020083;28;20403;-76
2023/04/14 00:27:18;;;;;;;13.80;2.65;;;6.40;99.90;;;;;;5016363;28;20083;-77
2023/04/14 00:29:58;;;;;;;9.88;2.17;;;6.30;99.90;;;;;;5021716;28;20089;-76
2023/04/14 00:32:25;;;;;;;7.90;2.20;;;6.30;99.90;;;;;;5019298;28;20499;-76
2023/04/14 00:34:51;;;;;;;9.77;2.30;;;6.50;99.90;;;;;;5052261;28;20539;-75
2023/04/14 00:37:18;;;;;;;14.05;2.75;;;6.20;99.90;;;;;;5042111;28;20102;-75
2023/04/14 00:39:46;;;;;;;6.63;2.10;;;6.20;99.90;;;;;;5037965;28;20107;-76
2023/04/14 00:42:13;;;;;;;8.40;2.15;;;6.10;99.90;;;;;;5018611;28;20049;-76
2023/04/14 00:44:42;;;;;;;10.48;3.08;;;6.10;99.90;;;;;;5041176;28;20049;-75
2023/04/14 00:47:08;;;;;;;12.38;2.40;;;6.10;99.90;;;;;;5008634;28;20055;-75
2023/04/14 00:49:42;;;;;;;10.48;2.28;;;6.60;99.90;;;;;;5039236;28;20065;-76
2023/04/14 00:52:17;;;;;;;8.02;2.20;;;6.10;99.90;;;;;;5057150;28;20106;-77
2023/04/14 00:54:43;;;;;;;13.05;2.60;;;6.00;99.90;;;;;;5020201;28;22090;-75
2023/04/14 00:57:09;;;;;;;7.22;1.92;;;6.00;99.90;;;;;;5025346;28;20052;-75
2023/04/14 00:59:36;;;;;;;10.38;1.95;;;6.00;99.90;;;;;;5035800;28;20052;-74
2023/04/14 01:02:08;;;;;;;8.95;2.53;;;6.00;99.90;;;;;;5041518;28;20052;-76
2023/04/14 01:04:34;;;;;;;9.45;2.30;;;6.00;99.90;;;;;;5050663;28;20041;-75
2023/04/14 01:07:06;;;;;;;10.25;2.95;;;6.00;99.90;;;;;;5017502;28;20196;-76
2023/04/14 01:09:32;;;;;;;13.35;2.58;;;6.10;99.90;;;;;;5003581;28;20064;-76
2023/04/14 01:12:11;;;;;;;10.00;2.63;;;6.00;99.90;;;;;;5038609;28;20491;-75
2023/04/14 01:15:03;;;;;;;11.70;2.88;;;6.00;99.90;;;;;;5016231;28;20107;-77
2023/04/14 01:17:53;;;;;;;11.35;3.10;;;6.00;99.90;;;;;;5018460;28;20058;-75
2023/04/14 01:20:23;;;;;;;8.23;2.58;;;5.90;99.90;;;;;;5051008;28;20087;-76
2023/04/14 01:23:06;;;;;;;9.30;2.08;;;5.90;99.90;;;;;;5052473;28;20044;-75
2023/04/14 01:26:23;;;;;;;9.32;2.22;;;5.90;99.90;;;;;;5031571;28;20053;-76
2023/04/14 01:29:13;;;;;;;10.20;2.23;;;5.80;99.90;;;;;;4994539;28;20145;-75
2023/04/14 01:31:52;;;;;;;6.40;2.05;;;5.80;99.90;;;;;;5036200;28;20303;-77
2023/04/14 01:34:48;;;;;;;8.73;2.33;;;6.00;99.90;;;;;;5023289;28;20045;-75
2023/04/14 01:37:22;;;;;;;9.47;2.80;;;5.70;99.90;;;;;;5040168;28;20135;-75
2023/04/14 01:39:53;;;;;;;5.80;2.13;;;5.70;99.90;;;;;;5039097;28;20446;-76
2023/04/14 01:42:25;;;;;;;11.68;2.60;;;5.60;99.90;;;;;;5040532;28;20048;-76
2023/04/14 01:44:57;;;;;;;11.80;2.47;;;5.60;99.90;;;;;;5040399;28;20048;-75
2023/04/14 01:47:26;;;;;;;7.38;2.58;;;5.50;99.90;;;;;;5040148;28;20168;-76
2023/04/14 01:49:54;;;;;;;11.40;2.55;;;5.50;99.90;;;;;;5022631;28;20384;-75
2023/04/14 01:52:21;;;;;;;10.65;3.45;;;5.50;99.90;;;;;;5036076;28;20105;-75
2023/04/14 01:54:50;;;;;;;10.75;2.50;;;5.50;99.90;;;;;;5053098;28;20048;-77
2023/04/14 01:57:21;;;;;;;11.20;2.88;;;5.50;99.90;;;;;;5040122;28;20046;-74
2023/04/14 01:59:52;;;;;;;12.98;2.58;;;5.40;99.90;;;;;;5023091;28;20052;-75
2023/04/14 02:02:20;;;;;;;10.07;2.80;;;5.40;99.90;;;;;;5036823;28;20527;-77
2023/04/14 02:04:47;;;;;;;8.77;2.15;;;5.40;99.90;;;;;;5048674;28;20049;-77
2023/04/14 02:07:18;;;;;;;9.20;2.03;;;5.30;99.90;;;;;;5050572;28;20083;-76
2023/04/14 02:09:58;;;;;;;6.25;2.13;;;5.30;99.90;;;;;;5009067;28;20132;-75
2023/04/14 02:12:27;;;;;;;7.10;2.53;;;6.20;99.90;;;;;;5020121;28;21678;-77
2023/04/14 02:14:59;;;;;;;14.73;2.88;;;5.20;99.90;;;;;;5036521;28;20139;-74
2023/04/14 02:17:25;;;;;;;11.88;2.50;;;5.20;99.90;;;;;;5035552;28;20104;-75
2023/04/14 02:19:53;;;;;;;10.98;2.33;;;5.20;99.90;;;;;;5037564;28;20056;-76
2023/04/14 02:22:20;;;;;;;8.55;2.65;;;5.20;99.90;;;;;;5036265;28;20079;-76
2023/04/14 02:24:46;;;;;;;9.93;2.70;;;5.20;99.90;;;;;;5024009;28;20419;-76
2023/04/14 02:27:24;;;;;;;7.53;2.58;;;5.10;99.90;;;;;;5051125;28;20061;-76
2023/04/14 02:29:53;;;;;;;8.43;2.47;;;5.10;99.90;;;;;;5039143;28;20056;-76
2023/04/14 02:32:27;;;;;;;9.77;2.63;;;5.10;99.90;;;;;;5014943;28;20400;-74
2023/04/14 02:35:02;;;;;;;10.02;2.55;;;5.10;99.90;;;;;;5052285;28;20057;-76
2023/04/14 02:37:35;;;;;;;10.90;2.57;;;5.10;99.90;;;;;;5041100;28;20044;-76
2023/04/14 02:40:11;;;;;;;;;;;5.00;99.90;;;;;;5041779;28;20061;-76
2023/04/14 02:42:43;;;;;;;8.05;2.17;;;5.00;99.90;;;;;;5037359;28;19925;-74
2023/04/14 02:45:18;;;;;;;8.63;2.53;;;5.00;99.90;;;;;;5040048;28;20097;-75
2023/04/14 02:47:51;;;;;;;8.63;2.50;;;5.00;99.90;;;;;;5040716;28;20056;-74
2023/04/14 02:50:20;;;;;;;8.00;2.65;;;5.00;99.90;;;;;;5043026;28;20064;-75
2023/04/14 02:52:50;;;;;;;13.07;2.60;;;5.00;99.90;;;;;;5053511;28;20048;-76
2023/04/14 02:55:23;;;;;;;7.75;2.35;;;4.90;99.90;;;;;;5055310;28;20397;-76
2023/04/14 02:57:56;;;;;;;9.23;2.30;;;4.80;99.90;;;;;;5042535;28;20617;-76
2023/04/14 03:00:24;;;;;;;8.50;2.70;;;4.70;99.90;;;;;;5020444;28;20111;-75
2023/04/14 03:02:55;;;;;;;8.77;2.38;;;4.80;99.90;;;;;;5044321;28;20080;-76
2023/04/14 03:05:22;;;;;;;10.93;2.83;;;4.60;99.90;;;;;;5052812;28;20049;-78
2023/04/14 03:07:50;;;;;;;11.38;2.80;;;4.70;99.90;;;;;;5034507;28;20064;-75
2023/04/14 03:10:16;;;;;;;7.63;2.80;;;4.50;99.90;;;;;;5019638;28;20044;-74
2023/04/14 03:12:44;;;;;;;8.88;2.45;;;4.40;99.90;;;;;;5020092;28;20044;-76
2023/04/14 03:15:11;;;;;;;6.80;2.33;;;5.00;99.90;;;;;;5019336;28;20076;-76
2023/04/14 03:17:41;;;;;;;10.43;2.95;;;4.60;99.90;;;;;;5019104;28;20048;-76
2023/04/14 03:20:10;;;;;;;8.45;2.50;;;4.70;99.90;;;;;;5039527;28;20038;-75
2023/04/14 03:22:40;;;;;;;9.73;2.47;;;4.30;99.90;;;;;;5038501;28;20053;-77
2023/04/14 03:25:18;;;;;;;7.88;2.90;;;4.20;99.90;;;;;;5038412;28;20049;-76
2023/04/14 03:27:46;;;;;;;9.40;2.70;;;4.20;99.90;;;;;;5035574;28;20362;-74
2023/04/14 03:30:17;;;;;;;8.40;2.88;;;4.10;99.90;;;;;;5040405;28;20131;-77
2023/04/14 03:32:50;;;;;;;8.05;2.85;;;4.00;99.90;;;;;;5021043;28;20067;-76
2023/04/14 03:35:18;;;;;;;8.77;2.53;;;4.00;99.90;;;;;;5024668;28;20061;-76
2023/04/14 03:37:47;;;;;;;9.05;2.92;;;4.00;99.90;;;;;;5054835;28;20053;-74
2023/04/14 03:40:16;;;;;;;6.47;2.75;;;4.00;99.90;;;;;;5039739;28;20082;-74
2023/04/14 03:42:47;;;;;;;9.80;2.70;;;3.90;99.90;;;;;;5005755;28;20403;-75
2023/04/14 03:45:22;;;;;;;6.22;2.30;;;3.80;99.90;;;;;;5042193;28;20618;-74
2023/04/14 03:47:49;;;;;;;7.70;2.40;;;3.80;99.90;;;;;;5024192;28;20048;-75
2023/04/14 03:50:20;;;;;;;7.13;2.88;;;4.40;99.90;;;;;;5021760;28;20495;-76
2023/04/14 03:52:48;;;;;;;9.35;3.10;;;3.60;99.90;;;;;;5042680;28;20048;-75
2023/04/14 03:55:22;;;;;;;9.65;2.25;;;4.10;99.90;;;;;;5036891;28;20052;-76
2023/04/14 03:57:50;;;;;;;7.93;2.67;;;4.70;99.90;;;;;;5025062;28;20045;-76
2023/04/14 04:00:25;;;;;;;5.15;2.35;;;4.20;99.90;;;;;;5035693;28;20072;-76
2023/04/14 04:02:54;;;;;;;5.50;2.60;;;5.00;99.90;;;;;;5037035;28;20048;-76
2023/04/14 04:05:21;;;;;;;8.52;2.25;;;3.60;99.90;;;;;;5053146;28;20083;-75
2023/04/14 04:08:02;;;;;;;10.00;2.85;;;3.40;99.90;;;;;;5037299;28;20061;-74
2023/04/14 04:10:35;;;;;;;8.65;2.40;;;3.40;99.90;;;;;;5044588;28;20045;-76
2023/04/14 04:13:02;;;;;;;5.47;2.42;;;3.40;99.90;;;;;;5040902;28;20053;-78
2023/04/14 04:15:29;;;;;;;8.55;3.25;;;4.00;99.90;;;;;;5038575;28;20033;-77
2023/04/14 04:18:03;;;;;;;7.00;2.63;;;3.20;99.90;;;;;;5022053;28;20116;-76
2023/04/14 04:20:34;;;;;;;6.53;2.40;;;3.20;99.90;;;;;;5038049;28;20067;-75
2023/04/14 04:23:02;;;;;;;8.90;2.58;;;3.10;99.90;;;;;;5042252;28;20044;-78
2023/04/14 04:25:31;;;;;;;7.90;2.50;;;4.20;99.90;;;;;;5038155;28;20056;-75
2023/04/14 04:27:59;;;;;;;8.18;2.50;;;3.10;99.90;;;;;;5052558;28;20053;-73
2023/04/14 04:30:32;;;;;;;6.10;2.28;;;2.30;99.90;;;;;;5042143;28;20100;-77
2023/04/14 04:33:02;;;;;;;10.10;3.03;;;3.00;99.90;;;;;;5036400;28;20055;-75
2023/04/14 04:35:31;;;;;;;7.22;3.03;;;3.00;99.90;;;;;;5024648;28;20065;-77
2023/04/14 04:38:00;;;;;;;8.45;2.78;;;3.00;99.90;;;;;;5043060;28;20140;-75
2023/04/14 04:40:43;;;;;;;6.78;2.47;;;2.90;99.90;;;;;;5025663;28;20058;-77
2023/04/14 04:43:15;;;;;;;6.28;2.85;;;2.90;99.90;;;;;;5005279;28;20226;-75
2023/04/14 04:46:00;;;;;;;7.43;3.03;;;2.90;99.90;;;;;;5007341;28;20407;-77
2023/04/14 04:48:30;;;;;;;4.70;2.45;;;2.90;99.90;;;;;;5041039;28;20068;-76
2023/04/14 04:51:04;;;;;;;6.72;2.42;;;3.50;99.90;;;;;;5007384;28;20132;-75
2023/04/14 04:53:30;;;;;;;12.80;3.20;;;2.90;99.90;;;;;;4999815;28;20071;-75
2023/04/14 04:55:59;;;;;;;9.20;2.83;;;2.90;99.90;;;;;;5002773;28;20133;-76
2023/04/14 04:58:25;;;;;;;9.48;2.78;;;3.30;99.90;;;;;;5008642;28;20056;-75
2023/04/14 05:00:53;;;;;;;10.23;2.67;;;2.90;99.90;;;;;;5039327;28;20308;-76
2023/04/14 05:03:20;;;;;;;10.23;3.22;;;2.90;99.90;;;;;;5021544;28;20048;-74
2023/04/14 05:05:48;;;;;;;8.45;3.33;;;2.90;99.90;;;;;;5004853;28;20044;-75
2023/04/14 05:08:17;;;;;;;11.77;3.00;;;3.00;99.90;;;;;;5025649;28;20056;-76
2023/04/14 05:10:43;;;;;;;9.32;3.40;;;3.00;99.90;;;;;;5040414;28;20495;-74
2023/04/14 05:13:10;;;;;;;10.15;3.20;;;3.10;99.90;;;;;;5040059;28;20057;-76
2023/04/14 05:15:37;;;;;;;6.82;3.15;;;3.10;99.90;;;;;;5039020;28;20049;-75
2023/04/14 05:18:03;;;;;;;10.60;3.90;;;1.90;99.90;;;;;;5019125;28;20603;-77
2023/04/14 05:20:32;;;;;;;10.77;3.35;;;3.10;99.90;;;;;;5040391;28;20045;-77
2023/04/14 05:22:59;;;;;;;8.48;3.50;;;3.20;99.90;;;;;;5008075;28;20041;-76
2023/04/14 05:25:27;;;;;;;7.93;3.38;;;3.20;99.90;;;;;;5058548;28;20041;-75
2023/04/14 05:27:52;;;;;;;9.23;3.70;;;3.20;99.90;;;;;;5025833;28;20083;-76
2023/04/14 05:30:25;;;;;;;8.95;3.10;;;3.20;99.90;;;;;;5046976;28;20044;-75
2023/04/14 05:32:54;;;;;;;8.25;3.17;;;3.20;99.90;;;;;;5061350;28;20045;-75
2023/04/14 05:35:26;;;;;;;10.98;3.53;;;3.20;99.90;;;;;;5059736;28;20053;-75
2023/04/14 05:37:55;;;;;;;9.18;3.55;;;3.20;99.90;;;;;;5012528;28;20052;-74
2023/04/14 05:40:21;;;;;;;7.60;3.25;;;3.30;99.90;;;;;;5059970;28;20049;-75
2023/04/14 05:42:56;;;;;;;7.53;3.35;;;3.30;99.90;;;;;;5049018;28;20594;-76
2023/04/14 05:45:26;;;;;;;9.40;3.38;;;3.30;99.90;;;;;;5047260;28;20041;-75
2023/04/14 05:47:54;;;;;;;6.47;3.17;;;3.50;99.90;;;;;;5033264;28;20138;-75
2023/04/14 05:50:37;;;;;;;8.30;3.65;;;3.50;99.90;;;;;;5029651;28;20075;-76
2023/04/14 05:53:03;;;;;;;10.05;3.63;;;3.50;99.90;;;;;;5022470;28;20060;-75
2023/04/14 05:55:29;;;;;;;10.50;3.50;;;4.40;99.90;;;;;;5026585;28;20045;-74
2023/04/14 05:58:08;;;;;;;7.55;3.15;;;4.20;99.90;;;;;;5063491;28;20122;-75
2023/04/14 06:00:34;;;;;;;8.65;3.53;;;3.70;99.90;;;;;;5015148;28;20052;-74
2023/04/14 06:03:00;;;;;;;12.55;3.90;;;4.90;99.90;;;;;;5029173;28;20659;-74
2023/04/14 06:05:26;;;;;;;12.88;4.25;;;2.90;99.90;;;;;;5041140;28;20037;-77
2023/04/14 06:07:51;;;;;;;11.25;3.70;;;3.90;99.90;;;;;;5031504;28;20505;-78
2023/04/14 06:10:18;;;;;;;9.05;3.67;;;4.10;99.90;;;;;;5047725;28;20047;-77
2023/04/14 06:12:44;;;;;;;9.25;3.67;;;4.10;99.90;;;;;;5028612;28;20075;-75
2023/04/14 06:15:11;;;;;;;11.38;4.00;;;4.20;99.90;;;;;;5022603;28;20048;-76
2023/04/14 06:17:38;;;;;;;8.38;3.22;;;4.20;99.90;;;;;;5062816;28;20040;-75
2023/04/14 06:20:11;;;;;;;8.63;3.42;;;4.30;99.90;;;;;;5059688;28;20045;-79
2023/04/14 06:22:36;;;;;;;9.95;3.90;;;4.30;99.90;;;;;;5064783;28;20163;-76
2023/04/14 06:25:03;;;;;;;8.85;3.50;;;4.40;99.90;;;;;;5028447;28;20132;-79
2023/04/14 06:27:35;;;;;;;10.13;3.83;;;4.50;99.90;;;;;;5048197;28;20078;-77
2023/04/14 06:30:00;;;;;;;16.55;5.35;;;4.80;99.90;;;;;;5026521;28;20052;-78
2023/04/14 06:32:33;;;;;;;14.02;4.25;;;4.70;99.90;;;;;;5045211;28;20110;-74
2023/04/14 06:35:06;;;;;;;11.90;4.15;;;4.80;99.90;;;;;;5027981;28;20462;-75
2023/04/14 06:37:36;;;;;;;10.88;4.03;;;4.90;99.90;;;;;;5044132;28;20053;-75
2023/04/14 06:40:09;;;;;;;8.30;4.47;;;5.00;99.90;;;;;;5044711;28;20095;-74
2023/04/14 06:42:36;;;;;;;12.50;4.50;;;5.20;99.90;;;;;;5007331;28;20076;-74
2023/04/14 06:45:01;;;;;;;12.48;4.78;;;5.30;99.90;;;;;;5029247;28;20061;-71
2023/04/14 06:47:27;;;;;;;12.05;4.68;;;5.40;99.90;;;;;;5043990;28;20044;-72
2023/04/14 06:49:53;;;;;;;11.18;4.63;;;5.60;99.90;;;;;;5042242;28;20049;-73
2023/04/14 06:52:19;;;;;;;11.73;4.65;;;5.80;99.90;;;;;;5041937;28;20077;-74
2023/04/14 06:54:46;;;;;;;11.13;4.47;;;5.90;99.90;;;;;;5062482;28;20140;-74
2023/04/14 06:57:12;;;;;;;13.00;4.95;;;6.10;99.90;;;;;;5039294;28;20075;-76
2023/04/14 06:59:38;;;;;;;10.77;5.07;;;6.20;99.90;;;;;;5041539;28;20044;-75
2023/04/14 07:02:05;;;;;;;12.07;5.13;;;6.40;99.90;;;;;;5009961;28;20177;-76
2023/04/14 07:04:31;;;;;;;10.27;4.00;;;6.60;99.90;;;;;;5020833;28;20127;-76
2023/04/14 07:07:00;;;;;;;10.32;4.30;;;6.80;99.90;;;;;;5027381;28;20116;-75
2023/04/14 07:09:28;;;;;;;9.02;4.80;;;6.90;99.90;;;;;;5019025;28;20051;-76
2023/04/14 07:11:56;;;;;;;10.02;5.05;;;7.10;99.90;;;;;;5024944;28;20578;-76
2023/04/14 07:14:22;;;;;;;10.23;4.72;;;7.30;99.90;;;;;;5056443;28;20053;-76
2023/04/14 07:16:50;;;;;;;12.80;4.80;;;7.50;99.90;;;;;;5012356;28;20416;-74
2023/04/14 07:19:19;;;;;;;11.98;5.15;;;7.70;99.90;;;;;;5026718;28;20142;-76
2023/04/14 07:21:48;;;;;;;12.32;4.50;;;7.90;99.90;;;;;;5027649;28;20676;-75
2023/04/14 07:24:14;;;;;;;12.20;4.38;;;8.10;99.90;;;;;;5025524;28;20404;-75
2023/04/14 07:26:40;;;;;;;9.95;4.25;;;8.30;99.90;;;;;;5061712;28;20080;-75
2023/04/14 07:29:07;;;;;;;8.18;3.80;;;8.40;99.90;;;;;;5042644;28;20117;-77
2023/04/14 07:31:34;;;;;;;9.60;4.35;;;8.60;99.90;;;;;;5061320;28;20502;-77
2023/04/14 07:34:01;;;;;;;11.82;4.03;;;8.80;99.90;;;;;;5030490;28;20049;-76
2023/04/14 07:36:27;;;;;;;11.43;3.92;;;9.00;99.90;;;;;;5044113;28;20037;-78
2023/04/14 07:38:53;;;;;;;8.23;3.72;;;9.20;99.90;;;;;;5030698;28;20056;-77
2023/04/14 07:41:23;;;;;;;9.75;3.90;;;9.40;99.90;;;;;;5042627;28;20048;-80
2023/04/14 07:43:49;;;;;;;8.93;3.55;;;9.60;99.90;;;;;;5045872;28;20057;-79
2023/04/14 07:46:15;;;;;;;10.65;3.40;;;9.70;99.90;;;;;;5028272;28;20048;-75
2023/04/14 07:48:44;;;;;;;9.57;3.35;;;9.90;99.90;;;;;;5057615;28;20060;-78
2023/04/14 07:51:11;;;;;;;8.57;3.58;;;10.00;99.90;;;;;;5040470;28;20049;-77
2023/04/14 07:53:43;;;;;;;8.07;3.42;;;10.10;99.90;;;;;;5041476;28;20098;-77
2023/04/14 07:56:10;;;;;;;8.63;2.80;;;10.30;99.90;;;;;;5024627;28;20159;-77
2023/04/14 07:58:40;;;;;;;9.63;2.95;;;10.30;99.90;;;;;;5042654;28;20049;-75
2023/04/14 08:01:06;;;;;;;12.40;3.45;;;9.60;99.90;;;;;;5031733;28;20056;-77
2023/04/14 08:03:32;;;;;;;14.57;4.15;;;10.40;99.90;;;;;;5024832;28;20040;-79
2023/04/14 08:05:58;;;;;;;9.15;3.08;;;10.60;99.90;;;;;;5042233;28;20072;-81
2023/04/14 08:08:26;;;;;;;9.65;2.75;;;10.70;99.90;;;;;;5027475;28;20215;-79
2023/04/14 08:10:53;;;;;;;5.88;2.95;;;10.90;99.90;;;;;;5019569;28;20048;-79
2023/04/14 08:13:19;;;;;;;7.63;2.63;;;11.00;99.90;;;;;;5024270;28;20502;-80
2023/04/14 08:15:45;;;;;;;8.05;2.85;;;11.20;99.90;;;;;;5038378;28;20053;-78
2023/04/14 08:18:11;;;;;;;9.18;2.83;;;11.30;99.90;;;;;;5002185;28;20088;-77
2023/04/14 08:20:44;;;;;;;9.50;2.45;;;11.40;99.90;;;;;;5054248;28;20063;-77
2023/04/14 08:23:11;;;;;;;8.50;2.90;;;11.40;99.90;;;;;;5035764;28;20092;-76
2023/04/14 08:25:38;;;;;;;11.45;3.20;;;11.50;99.90;;;;;;5039591;28;20616;-77
2023/04/14 08:28:03;;;;;;;8.38;2.45;;;11.60;99.90;;;;;;5024286;28;20041;-75
2023/04/14 08:30:29;;;;;;;6.20;2.47;;;11.70;99.90;;;;;;5009609;28;20102;-75
2023/04/14 08:32:55;;;;;;;10.00;2.30;;;11.80;99.90;;;;;;5036879;28;20175;-76
2023/04/14 08:35:24;;;;;;;6.35;2.10;;;12.00;99.90;;;;;;5023722;28;20049;-77
2023/04/14 08:37:52;;;;;;;7.90;3.20;;;12.10;99.90;;;;;;5042876;28;20060;-76
2023/04/14 08:40:22;;;;;;;7.18;2.75;;;12.20;99.90;;;;;;5037858;28;20094;-75
2023/04/14 08:42:47;;;;;;;12.07;3.10;;;12.30;99.90;;;;;;5041054;28;20395;-74
2023/04/14 08:45:13;;;;;;;7.60;3.05;;;12.40;99.90;;;;;;5050462;28;20044;-74
2023/04/14 08:47:42;;;;;;;10.52;3.33;;;12.40;99.90;;;;;;5033718;28;20049;-75
2023/04/14 08:50:24;;;;;;;10.15;3.08;;;12.50;99.90;;;;;;5037271;28;20057;-75
2023/04/14 08:52:56;;;;;;;8.20;2.60;;;12.50;99.90;;;;;;5040419;28;20049;-75
2023/04/14 08:55:24;;;;;;;9.98;3.55;;;12.80;99.90;;;;;;5056708;28;20116;-75
2023/04/14 08:58:01;;;;;;;10.30;3.55;;;13.00;99.90;;;;;;5044849;28;20072;-76
2023/04/14 09:00:27;;;;;;;12.52;3.50;;;13.10;99.90;;;;;;5020885;28;20055;-75
2023/04/14 09:02:59;;;;;;;9.88;3.90;;;13.20;99.90;;;;;;5027284;28;20080;-75
2023/04/14 09:05:25;;;;;;;11.55;3.28;;;13.40;99.90;;;;;;5039372;28;20483;-75
2023/04/14 09:07:52;;;;;;;7.10;2.33;;;13.50;99.90;;;;;;5041578;28;20143;-76
2023/04/14 09:10:29;;;;;;;5.80;1.95;;;13.50;99.90;;;;;;5042348;28;20127;-75
2023/04/14 09:12:56;;;;;;;9.48;2.40;;;13.60;99.90;;;;;;5040872;28;20041;-76
2023/04/14 09:15:24;;;;;;;9.85;2.78;;;13.60;99.90;;;;;;5039294;28;20045;-75
2023/04/14 09:17:50;;;;;;;6.70;2.25;;;13.60;99.90;;;;;;5043086;28;20053;-76
2023/04/14 09:20:20;;;;;;;7.75;2.22;;;13.70;99.90;;;;;;5038252;28;20055;-76
2023/04/14 09:22:47;;;;;;;5.13;1.65;;;13.80;99.90;;;;;;5058811;28;20071;-76
2023/04/14 09:25:15;;;;;;;6.60;1.85;;;13.90;99.90;;;;;;5036527;28;20480;-76
2023/04/14 09:27:41;;;;;;;6.28;1.67;;;14.00;99.90;;;;;;5041573;28;20044;-75
2023/04/14 09:30:08;;;;;;;6.55;1.65;;;14.20;99.90;;;;;;5025954;28;20111;-74
2023/04/14 09:32:37;;;;;;;8.35;1.90;;;14.40;99.90;;;;;;5036830;28;20080;-74
2023/04/14 09:35:03;;;;;;;5.78;1.60;;;14.40;99.90;;;;;;5020034;28;20055;-75
2023/04/14 09:37:45;;;;;;;6.32;1.90;;;14.50;99.90;;;;;;5050317;28;20441;-75
2023/04/14 09:40:30;;;;;;;4.97;1.73;;;14.70;99.90;;;;;;5038485;28;20056;-75
2023/04/14 09:42:56;;;;;;;9.68;1.80;;;14.70;99.90;;;;;;5039148;28;20049;-75
2023/04/14 09:45:39;;;;;;;7.97;2.10;;;14.80;99.90;;;;;;5017791;28;20094;-74
2023/04/14 09:48:09;;;;;;;6.05;1.65;;;14.90;99.90;;;;;;5039171;28;20423;-79
2023/04/14 09:50:56;;;;;;;7.05;1.90;;;15.00;99.90;;;;;;5022375;28;20044;-78
2023/04/14 09:53:32;;;;;;;8.30;2.72;;;15.30;99.90;;;;;;5037445;28;20049;-76
2023/04/14 09:56:01;;;;;;;4.13;1.63;;;15.50;99.90;;;;;;5036968;28;20468;-76
2023/04/14 09:58:37;;;;;;;7.00;1.90;;;15.50;99.90;;;;;;5020586;28;20167;-78
2023/04/14 10:01:05;;;;;;;10.02;2.30;;;15.30;99.90;;;;;;5037388;28;20061;-78
2023/04/14 10:03:51;;;;;;;6.25;1.92;;;15.10;99.90;;;;;;5024503;28;20101;-79
2023/04/14 10:06:19;;;;;;;6.20;1.83;;;15.00;99.90;;;;;;5037167;28;20072;-76
2023/04/14 10:08:54;;;;;;;5.63;1.98;;;15.20;99.90;;;;;;5037034;28;20044;-79
2023/04/14 10:11:21;;;;;;;5.53;1.50;;;15.50;99.90;;;;;;5057356;28;20052;-76
2023/04/14 10:13:55;;;;;;;4.28;1.70;;;15.70;99.90;;;;;;5043750;28;20049;-80
2023/04/14 10:16:33;;;;;;;6.93;2.00;;;15.80;99.90;;;;;;5036292;28;20126;-80
2023/04/14 10:19:02;;;;;;;4.55;1.50;;;15.60;99.90;;;;;;5010484;28;20075;-79
2023/04/14 10:21:28;;;;;;;7.22;1.63;;;15.60;99.90;;;;;;5040255;28;20103;-75
2023/04/14 10:23:55;;;;;;;5.25;1.23;;;15.60;99.90;;;;;;5039155;28;20049;-76
2023/04/14 10:26:21;;;;;;;3.53;1.10;;;15.70;99.90;;;;;;5052664;28;20049;-77
2023/04/14 10:28:52;;;;;;;5.78;1.50;;;15.80;99.90;;;;;;5018981;28;20045;-77
2023/04/14 10:31:39;;;;;;;3.50;1.02;;;16.00;99.90;;;;;;5022098;28;20048;-73
2023/04/14 10:34:12;;;;;;;3.78;1.30;;;16.30;99.90;;;;;;5052056;28;20053;-73
2023/04/14 10:36:40;;;;;;;3.67;1.30;;;16.50;99.90;;;;;;5052810;28;21225;-76
2023/04/14 10:39:08;;;;;;;5.95;1.63;;;16.50;99.90;;;;;;5037630;28;20057;-77
2023/04/14 10:41:45;;;;;;;4.10;1.50;;;16.80;99.90;;;;;;5039113;28;20064;-75
2023/04/14 10:44:23;;;;;;;3.72;1.48;;;17.10;98.10;;;;;;5020759;28;20075;-74
2023/04/14 10:46:50;;;;;;;4.47;1.35;;;17.10;96.90;;;;;;5038718;28;20553;-75
2023/04/14 10:49:48;;;;;;;3.28;1.10;;;17.30;98.50;;;;;;5017189;28;20056;-76
2023/04/14 10:52:13;;;;;;;4.85;1.50;;;17.40;96.10;;;;;;5053003;28;20064;-77
2023/04/14 10:54:56;;;;;;;3.67;1.40;;;17.50;97.70;;;;;;5037228;28;20041;-77
2023/04/14 10:57:25;;;;;;;5.72;1.40;;;17.60;95.80;;;;;;5021714;28;20056;-78
2023/04/14 10:59:58;;;;;;;3.25;1.08;;;17.90;96.70;;;;;;5036109;28;20045;-76
2023/04/14 11:02:29;;;;;;;4.60;1.35;;;17.90;95.40;;;;;;5044794;28;20052;-76
2023/04/14 11:05:03;;;;;;;5.25;1.50;;;18.10;94.90;;;;;;5038625;28;20099;-73
2023/04/14 11:07:43;;;;;;;4.25;1.40;;;17.90;94.30;;;;;;5040627;28;20060;-74
2023/04/14 11:10:22;;;;;;;3.55;1.23;;;17.90;92.80;;;;;;5023780;28;20060;-76
2023/04/14 11:12:55;;;;;;;3.78;1.10;;;18.10;93.60;;;;;;5036161;28;20040;-78
2023/04/14 11:15:21;;;;;;;3.00;1.30;;;18.40;92.70;;;;;;5056930;28;20289;-78
2023/04/14 11:17:47;;;;;;;5.05;1.67;;;18.60;93.40;;;;;;5007370;28;20052;-78
2023/04/14 11:20:32;;;;;;;3.88;1.50;;;18.70;93.00;;;;;;5042063;28;20459;-78
2023/04/14 11:22:59;;;;;;;3.10;1.23;;;19.10;91.90;;;;;;5041364;28;20049;-77
2023/04/14 11:25:26;;;;;;;4.00;1.40;;;19.00;91.40;;;;;;5045990;28;20041;-77
2023/04/14 11:27:52;;;;;;;4.97;1.70;;;19.20;91.20;;;;;;5046560;28;20095;-78
2023/04/14 11:30:19;;;;;;;4.00;1.45;;;19.00;90.60;;;;;;5048718;28;20053;-78
2023/04/14 11:32:55;;;;;;;5.30;1.80;;;19.00;90.40;;;;;;5041040;28;20098;-77
2023/04/14 11:35:23;;;;;;;3.03;1.60;;;18.90;86.60;;;;;;5040261;28;20056;-78
2023/04/14 11:37:55;;;;;;;4.50;1.50;;;19.00;88.40;;;;;;5038141;28;20052;-76
2023/04/14 11:40:22;;;;;;;3.35;1.33;;;19.30;88.30;;;;;;5039473;28;20051;-78
2023/04/14 11:42:53;;;;;;;3.63;1.30;;;19.70;88.70;;;;;;5047493;28;20084;-83
2023/04/14 11:45:19;;;;;;;2.83;1.13;;;20.00;86.30;;;;;;5023629;28;20396;-82
2023/04/14 11:48:04;;;;;;;6.32;1.30;;;20.10;83.50;;;;;;5039820;28;20159;-85
2023/04/14 11:50:33;;;;;;;4.40;1.63;;;20.10;77.90;;;;;;5033714;28;20106;-78
2023/04/14 11:53:01;;;;;;;7.38;1.95;;;20.10;80.50;;;;;;5041362;28;20045;-76
2023/04/14 11:55:35;;;;;;;7.07;2.20;;;19.70;81.40;;;;;;5024492;28;20055;-75
2023/04/14 11:58:02;;;;;;;10.45;1.98;;;19.40;81.50;;;;;;5022264;28;20048;-79
2023/04/14 12:00:28;;;;;;;4.38;1.45;;;19.40;82.20;;;;;;5034911;28;20045;-76
2023/04/14 12:03:13;;;;;;;5.38;1.60;;;18.90;81.90;;;;;;5041322;28;20109;-81
2023/04/14 12:05:40;;;;;;;2.95;1.30;;;18.50;77.90;;;;;;5038159;28;20042;-86
2023/04/14 12:08:08;;;;;;;3.90;1.20;;;18.80;82.90;;;;;;5044955;28;20057;-83
2023/04/14 12:10:35;;;;;;;4.88;1.63;;;19.00;81.00;;;;;;5041173;28;20491;-75
2023/04/14 12:13:22;;;;;;;2.90;1.17;;;19.30;79.60;;;;;;5054906;28;20049;-73
2023/04/14 12:16:03;;;;;;;3.40;1.10;;;19.80;79.60;;;;;;4993164;28;20501;-75
2023/04/14 12:18:29;;;;;;;2.88;0.90;;;20.10;77.20;;;;;;4974014;28;20063;-72
2023/04/14 12:21:03;;;;;;;2.55;1.08;;;20.30;76.30;;;;;;4945376;28;20065;-82
2023/04/14 12:24:18;;;;;;;5.22;1.25;;;20.50;73.00;;;;;;4991782;28;20042;-72
2023/04/14 12:27:05;;;;;;;3.45;1.02;;;20.90;71.90;;;;;;4959312;28;20048;-74
2023/04/14 12:29:53;;;;;;;3.90;1.37;;;21.00;72.10;;;;;;4997003;28;20113;-73
2023/04/14 12:32:57;;;;;;;3.90;1.15;;;21.10;71.10;;;;;;4973259;28;20770;-74
2023/04/14 12:35:39;;;;;;;3.47;1.10;;;21.10;66.50;;;;;;4994549;28;20062;-71
2023/04/14 12:38:13;;;;;;;5.07;1.20;;;20.80;70.70;;;;;;4994703;28;20061;-73
2023/04/14 12:40:47;;;;;;;4.10;1.38;;;20.70;69.20;;;;;;4994747;28;20054;-72
2023/04/14 12:43:41;;;;;;;3.90;1.00;;;20.90;69.70;;;;;;4982063;28;20054;-73
2023/04/14 12:46:10;;;;;;;3.08;1.25;;;20.60;69.50;;;;;;4961197;28;21074;-74
2023/04/14 12:49:28;;;;;;;4.32;0.98;;;20.30;69.60;;;;;;4995229;28;20053;-72
2023/04/14 12:52:58;;;;;;;4.90;1.50;;;20.10;69.60;;;;;;4979043;28;20050;-78
2023/04/14 12:56:10;;;;;;;3.78;1.35;;;19.70;68.50;;;;;;4982721;28;20058;-78
2023/04/14 12:58:45;;;;;;;5.93;1.38;;;19.30;69.20;;;;;;4995600;28;20472;-80
2023/04/14 13:01:33;;;;;;;6.15;1.40;;;19.20;73.00;;;;;;4995751;28;20136;-75
2023/04/14 13:08:06;;;;;;;5.50;1.40;;;17.90;68.50;;;;;;4926512;29;20056;-77
2023/04/14 13:11:24;;;;;;;5.65;1.40;;;18.60;72.20;;;;;;4905860;29;20139;-77
2023/04/14 13:21:26;;;;;;;4.55;1.67;;;17.80;74.80;;;;;;4961333;28;20185;-72
2023/04/14 13:24:15;;;;;;;5.47;1.63;;;17.60;77.50;;;;;;4936842;28;20058;-73